createdAt,value
2022-12-23T00:01:05.983Z,100074.19
2022-12-23T00:03:34.726Z,100065.47
2022-12-23T00:06:09.462Z,100059.53
2022-12-23T00:08:37.401Z,100056.84
2022-12-23T00:11:05.989Z,100056.84
2022-12-23T00:13:51.949Z,100056.03
2022-12-23T00:16:19.595Z,100056.75
2022-12-23T00:18:47.228Z,100041.19
2022-12-23T00:21:18.286Z,100048.06
2022-12-23T00:23:48.293Z,100046.28
2022-12-23T00:26:17.514Z,100038.59
2022-12-23T00:28:45.651Z,100027.31
2022-12-23T00:31:13.964Z,100023.69
2022-12-23T00:33:43.466Z,100018.50
2022-12-23T00:36:19.034Z,100030.53
2022-12-23T00:39:05.146Z,100027.00
2022-12-23T00:41:50.553Z,100014.03
2022-12-23T00:44:18.155Z,100018.28
2022-12-23T00:46:45.802Z,100008.75
2022-12-23T00:49:32.426Z,100015.50
2022-12-23T00:52:02.024Z,100008.56
2022-12-23T00:54:29.781Z,100011.97
2022-12-23T00:56:57.323Z,100011.88
2022-12-23T00:59:24.857Z,100008.34
2022-12-23T01:02:09.854Z,100010.22
2022-12-23T01:04:55.207Z,100016.25
2022-12-23T01:07:24.831Z,100015.31
2022-12-23T01:09:52.401Z,100013.56
2022-12-23T01:12:20.131Z,100012.72
2022-12-23T01:14:47.763Z,100016.25
2022-12-23T01:17:15.925Z,100013.75
2022-12-23T01:19:43.577Z,100007.63
2022-12-23T01:22:11.144Z,100004.09
2022-12-23T01:24:40.093Z,99997.16
2022-12-23T01:27:07.676Z,99994.56
2022-12-23T01:29:35.248Z,100007.44
2022-12-23T01:32:02.903Z,100008.34
2022-12-23T01:34:36.459Z,99998.81
2022-12-23T01:37:05.110Z,100001.31
2022-12-23T01:39:32.666Z,99991.88
2022-12-23T01:42:19.753Z,99995.19
2022-12-23T01:44:50.736Z,99984.00
2022-12-23T01:47:23.541Z,99986.59
2022-12-23T01:49:54.151Z,99977.94
2022-12-23T01:52:22.519Z,99986.59
2022-12-23T01:54:50.313Z,99979.72
2022-12-23T01:57:19.278Z,99972.84
2022-12-23T02:00:06.757Z,99983.34
2022-12-23T02:02:55.555Z,99981.78
2022-12-23T02:05:24.858Z,99983.75
2022-12-23T02:08:12.178Z,99980.28
2022-12-23T02:10:55.289Z,99979.47
2022-12-23T02:13:32.293Z,99975.34
2022-12-23T02:16:19.244Z,99964.28
2022-12-23T02:19:03.057Z,99969.56
2022-12-23T02:21:54.033Z,99961.16
2022-12-23T02:25:01.680Z,99954.09
2022-12-23T02:27:32.790Z,99950.59
2022-12-23T02:30:28.150Z,99945.41
2022-12-23T02:33:14.087Z,99946.03
2022-12-23T02:35:47.280Z,99945.94
2022-12-23T02:38:24.437Z,99936.19
2022-12-23T02:40:59.907Z,99937.03
2022-12-23T02:43:35.423Z,99938.69
2022-12-23T02:46:10.817Z,99931.75
2022-12-23T02:48:46.074Z,99931.66
2022-12-23T02:51:15.958Z,99924.81
2022-12-23T02:53:48.734Z,99923.88
2022-12-23T02:56:18.657Z,99924.59
2022-12-23T02:58:51.215Z,99921.91
2022-12-23T03:01:21.626Z,99914.22
2022-12-23T03:03:51.495Z,99915.88
2022-12-23T03:06:23.830Z,99903.84
2022-12-23T03:08:55.673Z,99904.78
2022-12-23T03:11:40.073Z,99899.56
2022-12-23T03:14:23.929Z,99903.00
2022-12-23T03:17:01.382Z,99896.06
2022-12-23T03:19:36.076Z,99907.25
2022-12-23T03:22:11.169Z,99903.75
2022-12-23T03:24:45.662Z,99896.78
2022-12-23T03:27:20.006Z,99890.69
2022-12-23T03:29:55.446Z,99886.31
2022-12-23T03:32:27.183Z,99891.50
2022-12-23T03:34:58.724Z,99887.13
2022-12-23T03:37:28.826Z,99889.63
2022-12-23T03:40:02.679Z,99887.03
2022-12-23T03:42:35.556Z,99894.72
2022-12-23T03:45:39.279Z,99884.25
2022-12-23T03:48:03.957Z,99872.09
2022-12-23T03:50:33.063Z,99868.56
2022-12-23T03:53:06.543Z,99873.84
2022-12-23T03:55:37.579Z,99868.56
2022-12-23T03:58:11.287Z,99884.03
2022-12-23T04:00:44.808Z,99874.59
2022-12-23T04:03:20.339Z,99874.69
2022-12-23T04:05:53.713Z,99865.97
2022-12-23T04:08:27.243Z,99860.78
2022-12-23T04:10:55.216Z,99865.97
2022-12-23T04:13:22.751Z,99866.78
2022-12-23T04:15:50.615Z,99867.56
2022-12-23T04:18:19.672Z,99859.75
2022-12-23T04:20:47.269Z,99848.44
2022-12-23T04:23:14.868Z,99858.81
2022-12-23T04:25:42.525Z,99857.06
2022-12-23T04:28:10.157Z,99841.50
2022-12-23T04:30:37.788Z,99842.31
2022-12-23T04:33:05.353Z,99842.31
2022-12-23T04:35:34.196Z,99847.41
2022-12-23T04:38:01.758Z,99842.13
2022-12-23T04:40:29.279Z,99844.63
2022-12-23T04:42:56.798Z,99851.44
2022-12-23T04:45:24.259Z,99845.34
2022-12-23T04:47:51.769Z,99835.78
2022-12-23T04:50:19.371Z,99838.38
2022-12-23T04:52:48.221Z,99840.25
2022-12-23T04:55:15.784Z,99839.41
2022-12-23T04:57:43.350Z,99844.50
2022-12-23T05:00:12.033Z,99845.34
2022-12-23T05:02:39.663Z,99849.59
2022-12-23T05:05:07.758Z,99849.59
2022-12-23T05:07:35.283Z,99844.41
2022-12-23T05:10:04.405Z,99853.75
2022-12-23T05:12:32.594Z,99851.16
2022-12-23T05:15:00.189Z,99847.72
2022-12-23T05:17:27.806Z,99854.66
2022-12-23T05:19:55.264Z,99846.88
2022-12-23T05:22:22.798Z,99845.22
2022-12-23T05:24:50.396Z,99848.56
2022-12-23T05:27:19.584Z,99847.72
2022-12-23T05:29:47.184Z,99849.38
2022-12-23T05:32:14.695Z,99851.03
2022-12-23T05:34:42.286Z,99848.44
2022-12-23T05:37:10.007Z,99843.25
2022-12-23T05:39:37.592Z,99838.88
2022-12-23T05:42:05.543Z,99848.44
2022-12-23T05:44:34.634Z,99852.72
2022-12-23T05:47:02.606Z,99850.13
2022-12-23T05:49:30.195Z,99852.72
2022-12-23T05:51:57.713Z,99843.16
2022-12-23T05:54:25.391Z,99858.53
2022-12-23T05:56:52.962Z,99847.28
2022-12-23T05:59:20.567Z,99856.75
2022-12-23T06:01:57.323Z,99840.34
2022-12-23T06:04:31.131Z,99845.34
2022-12-23T06:07:10.593Z,99853.13
2022-12-23T06:09:48.044Z,99846.28
2022-12-23T06:12:16.831Z,99860.91
2022-12-23T06:14:57.168Z,99851.34
2022-12-23T06:17:34.266Z,99856.44
2022-12-23T06:20:08.257Z,99857.28
2022-12-23T06:22:50.568Z,99863.31
2022-12-23T06:25:23.627Z,99865.78
2022-12-23T06:28:09.580Z,99864.13
2022-12-23T06:30:45.154Z,99869.22
2022-12-23T06:33:30.391Z,99874.41
2022-12-23T06:36:03.536Z,99881.25
2022-12-23T06:38:33.659Z,99878.66
2022-12-23T06:41:11.396Z,99887.19
2022-12-23T06:43:41.469Z,99898.41
2022-12-23T06:46:18.191Z,99890.63
2022-12-23T06:48:52.428Z,99888.03
2022-12-23T06:51:22.587Z,99906.91
2022-12-23T06:53:52.976Z,99897.38
2022-12-23T06:56:34.219Z,99910.38
2022-12-23T07:00:03.844Z,99914.59
2022-12-23T07:02:33.767Z,99911.09
2022-12-23T07:05:02.845Z,99907.63
2022-12-23T07:07:32.180Z,99917.91
2022-12-23T07:09:59.997Z,99919.59
2022-12-23T07:12:32.187Z,99919.59
2022-12-23T07:14:59.957Z,99929.16
2022-12-23T07:17:30.020Z,99932.47
2022-12-23T07:19:57.591Z,99935.91
2022-12-23T07:22:26.495Z,99940.28
2022-12-23T07:24:54.967Z,99933.31
2022-12-23T07:27:24.899Z,99941.00
2022-12-23T07:29:52.938Z,99953.06
2022-12-23T07:32:24.974Z,99948.69
2022-12-23T07:34:52.810Z,99934.88
2022-12-23T07:37:20.662Z,99953.78
2022-12-23T07:39:50.263Z,99950.34
2022-12-23T07:42:44.336Z,99961.56
2022-12-23T07:45:11.596Z,99962.28
2022-12-23T07:47:39.280Z,99954.50
2022-12-23T07:50:15.415Z,99952.66
2022-12-23T07:52:53.268Z,99951.78
2022-12-23T07:55:23.252Z,99949.09
2022-12-23T07:57:52.911Z,99949.81
2022-12-23T08:00:22.797Z,99950.66
2022-12-23T08:02:51.730Z,99954.09
2022-12-23T08:05:20.129Z,99956.69
2022-12-23T08:07:51.024Z,99963.56
2022-12-23T08:10:19.334Z,99956.59
2022-12-23T08:12:49.119Z,99963.47
2022-12-23T08:15:17.457Z,99971.97
2022-12-23T08:17:46.672Z,99974.47
2022-12-23T08:20:29.038Z,99971.03
2022-12-23T08:22:57.110Z,99975.19
2022-12-23T08:25:29.779Z,99970.91
2022-12-23T08:27:58.963Z,99982.97
2022-12-23T08:30:27.011Z,99977.78
2022-12-23T08:32:54.846Z,99972.59
2022-12-23T08:35:22.400Z,99979.47
2022-12-23T08:37:50.478Z,99990.69
2022-12-23T08:40:23.256Z,99987.97
2022-12-23T08:46:14.510Z,99995.56
2022-12-23T08:48:48.646Z,99992.88
2022-12-23T08:51:20.119Z,99991.81
2022-12-23T08:53:49.167Z,99985.78
2022-12-23T08:56:29.122Z,99986.63
2022-12-23T08:59:03.146Z,99995.03
2022-12-23T09:01:36.587Z,99992.44
2022-12-23T09:04:07.782Z,100000.97
2022-12-23T09:06:39.290Z,100002.53
2022-12-23T09:09:27.526Z,100019.69
2022-12-23T09:12:11.759Z,100017.00
2022-12-23T09:14:42.260Z,100017.72
2022-12-23T09:17:10.002Z,100010.72
2022-12-23T09:19:40.036Z,100009.00
2022-12-23T09:22:16.642Z,100024.47
2022-12-23T09:24:44.226Z,100015.72
2022-12-23T09:27:12.539Z,100025.19
2022-12-23T09:29:41.877Z,100038.19
2022-12-23T09:32:10.032Z,100043.28
2022-12-23T09:34:38.477Z,100052.72
2022-12-23T09:37:06.066Z,100069.19
2022-12-23T09:39:37.515Z,100072.59
2022-12-23T09:42:28.879Z,100068.34
2022-12-23T09:45:26.672Z,100072.59
2022-12-23T09:48:08.247Z,100082.06
2022-12-23T09:50:36.294Z,100083.63
2022-12-23T09:53:07.469Z,100079.25
2022-12-23T09:55:47.287Z,100096.53
2022-12-23T09:58:30.359Z,100095.59
2022-12-23T10:01:11.738Z,100084.25
2022-12-23T10:04:01.249Z,100102.44
2022-12-23T10:06:56.320Z,100097.13
2022-12-23T10:09:37.689Z,100101.53
2022-12-23T10:12:22.215Z,100115.25
2022-12-23T10:14:58.843Z,100104.84
2022-12-23T10:17:38.816Z,100102.25
2022-12-23T10:20:15.271Z,100094.34
2022-12-23T10:22:48.845Z,100101.94
2022-12-23T10:25:27.148Z,100107.03
2022-12-23T10:27:59.152Z,100100.06
2022-12-23T10:30:53.884Z,100105.16
2022-12-23T10:33:27.890Z,100102.47
2022-12-23T10:36:08.700Z,100107.56
2022-12-23T10:38:55.233Z,100101.44
2022-12-23T10:41:48.012Z,100101.44
2022-12-23T10:45:11.037Z,100102.16
2022-12-23T10:47:54.381Z,100096.75
2022-12-23T10:51:00.815Z,100094.97
2022-12-23T10:53:36.722Z,100096.66
2022-12-23T11:05:39.198Z,100094.16
2022-12-23T11:08:16.095Z,100087.91
2022-12-23T11:10:49.992Z,100105.78
2022-12-23T11:13:36.834Z,100099.56
2022-12-23T11:16:20.900Z,100107.38
2022-12-23T11:22:14.474Z,100102.88
2022-12-23T11:25:46.939Z,100102.78
2022-12-23T11:28:23.547Z,100090.50
2022-12-23T11:34:01.388Z,100093.72
2022-12-23T11:36:44.042Z,100105.69
2022-12-23T11:39:37.761Z,100116.09
2022-12-23T11:45:40.228Z,100119.31
2022-12-23T11:48:38.495Z,100117.53
2022-12-23T11:51:29.734Z,100117.44
2022-12-23T11:54:05.947Z,100126.06
2022-12-23T11:56:37.832Z,100126.91
2022-12-23T11:59:30.288Z,100133.75
2022-12-23T12:02:08.758Z,100139.81
2022-12-23T12:04:44.864Z,100132.84
2022-12-23T12:07:59.525Z,100147.63
2022-12-23T12:11:48.740Z,100153.84
2022-12-23T13:19:40.129Z,100140.44
2022-12-23T13:31:44.043Z,100141.06
2022-12-23T13:34:57.695Z,100130.44
2022-12-23T14:48:07.634Z,100129.31
2022-12-23T14:50:59.262Z,100129.50
2022-12-23T14:54:05.079Z,100128.78
2022-12-23T15:00:35.692Z,100137.72
2022-12-23T15:10:50.468Z,100148.22
2022-12-23T15:13:23.352Z,100143.97
2022-12-23T15:16:01.269Z,100147.50
2022-12-23T15:18:54.799Z,100158.00
2022-12-23T15:21:32.299Z,100150.19
2022-12-23T15:24:00.751Z,100147.59
2022-12-23T15:26:31.426Z,100140.75
2022-12-23T15:29:01.188Z,100135.66
2022-12-23T15:31:32.052Z,100140.84
2022-12-23T15:34:11.707Z,100139.19
2022-12-23T15:36:45.319Z,100141.78
2022-12-23T15:39:20.905Z,100128.88
2022-12-23T15:41:49.238Z,100131.47
2022-12-23T15:44:22.196Z,100128.97
2022-12-23T15:46:50.664Z,100116.19
2022-12-23T15:49:20.585Z,100124.94
2022-12-23T15:52:07.810Z,100118.88
2022-12-23T15:54:44.933Z,100112.97
2022-12-23T15:57:17.346Z,100122.63
2022-12-23T15:59:44.962Z,100117.63
2022-12-23T16:05:09.953Z,100136.88
2022-12-23T16:07:40.195Z,100134.38
2022-12-23T16:10:15.322Z,100128.53
2022-12-23T16:12:44.332Z,100138.09
2022-12-23T16:15:22.778Z,100141.88
2022-12-23T16:17:50.290Z,100137.59
2022-12-23T16:20:24.863Z,100142.16
2022-12-23T16:22:55.092Z,100138.69
2022-12-23T16:25:24.987Z,100132.69
2022-12-23T16:27:57.358Z,100147.56
2022-12-23T16:30:30.273Z,100132.97
2022-12-23T16:32:59.691Z,100144.44
2022-12-23T16:35:35.712Z,100146.28
2022-12-23T16:38:13.817Z,100149.81
2022-12-23T16:40:42.573Z,100149.81
2022-12-23T16:43:10.415Z,100146.50
2022-12-23T16:45:38.424Z,100152.59
2022-12-23T16:48:12.134Z,100141.59
2022-12-23T16:50:40.968Z,100137.31
2022-12-23T16:53:12.726Z,100141.78
2022-12-23T16:55:46.203Z,100125.38
2022-12-23T16:58:17.925Z,100122.88
2022-12-23T17:00:45.835Z,100133.25
2022-12-23T17:03:17.252Z,100119.31
2022-12-23T17:05:46.910Z,100119.53
2022-12-23T17:08:14.726Z,100110.06
2022-12-23T17:10:44.483Z,100105.81
2022-12-23T17:13:13.640Z,100111.00
2022-12-23T17:15:41.110Z,100098.97
2022-12-23T17:18:13.613Z,100098.09
2022-12-23T17:20:42.044Z,100096.47
2022-12-23T17:23:24.120Z,100093.97
2022-12-23T17:25:52.163Z,100093.09
2022-12-23T17:28:20.682Z,100100.19
2022-12-23T17:30:56.051Z,100089.88
2022-12-23T17:33:27.675Z,100086.47
2022-12-23T17:35:55.911Z,100086.56
2022-12-23T17:38:24.965Z,100083.13
2022-12-23T17:40:52.695Z,100078.78
2022-12-23T17:43:20.237Z,100073.56
2022-12-23T17:45:48.154Z,100070.25
2022-12-23T17:48:23.137Z,100074.63
2022-12-23T17:50:52.946Z,100060.78
2022-12-23T17:53:21.180Z,100063.38
2022-12-23T17:55:49.966Z,100052.25
2022-12-23T17:58:17.470Z,100055.78
2022-12-23T18:00:45.211Z,100063.56
2022-12-23T18:03:23.021Z,100052.38
2022-12-23T18:05:57.255Z,100059.34
2022-12-23T18:08:28.692Z,100051.63
2022-12-23T18:10:59.033Z,100044.88
2022-12-23T18:13:26.613Z,100053.50
2022-12-23T18:15:54.158Z,100040.63
2022-12-23T18:18:32.064Z,100040.63
2022-12-23T18:21:06.463Z,100031.06
2022-12-23T18:23:37.183Z,100033.66
2022-12-23T18:26:06.301Z,100036.25
2022-12-23T18:28:34.138Z,100033.75
2022-12-23T18:31:01.901Z,100027.75
2022-12-23T18:33:30.376Z,100030.34
2022-12-23T18:35:58.396Z,100033.75
2022-12-23T18:38:26.031Z,100028.56
2022-12-23T18:40:54.870Z,100030.22
2022-12-23T18:43:25.580Z,100028.56
2022-12-23T18:45:54.269Z,100028.56
2022-12-23T18:48:22.727Z,100032.84
2022-12-23T18:50:50.291Z,100039.66
2022-12-23T18:53:24.710Z,100040.53
2022-12-23T18:55:53.620Z,100046.44
2022-12-23T18:58:21.481Z,100046.44
2022-12-23T19:00:52.669Z,100047.38
2022-12-23T19:03:24.040Z,100038.03
2022-12-23T19:05:52.812Z,100039.78
2022-12-23T19:08:26.780Z,100039.03
2022-12-23T19:10:56.085Z,100031.44
2022-12-23T19:13:23.910Z,100028.94
2022-12-23T19:15:53.142Z,100039.44
2022-12-23T19:18:22.621Z,100033.53
2022-12-23T19:20:50.512Z,100037.88
2022-12-23T19:23:18.101Z,100034.53
2022-12-23T19:25:54.539Z,100026.03
2022-12-23T19:28:24.760Z,100021.88
2022-12-23T19:30:53.891Z,100028.91
2022-12-23T19:33:21.573Z,100023.81
2022-12-23T19:35:49.167Z,100016.16
2022-12-23T19:38:16.997Z,100024.88
2022-12-23T19:40:45.033Z,100020.69
2022-12-23T19:43:12.616Z,100017.25
2022-12-23T19:45:40.226Z,100016.44
2022-12-23T19:48:09.267Z,100012.16
2022-12-23T19:50:36.932Z,100017.47
2022-12-23T19:53:04.620Z,100014.03
2022-12-23T19:55:32.294Z,100008.03
2022-12-23T19:57:59.884Z,100004.47
2022-12-23T20:00:27.638Z,100005.34
2022-12-23T20:02:58.901Z,100006.97
2022-12-23T20:05:28.203Z,100012.16
2022-12-23T20:07:55.739Z,100006.06
2022-12-23T20:10:23.375Z,100005.97
2022-12-23T20:12:51.053Z,99998.19
2022-12-23T20:15:18.622Z,99998.09
2022-12-23T20:17:46.255Z,99997.22
2022-12-23T20:20:14.113Z,99993.72
2022-12-23T20:22:42.965Z,99992.88
2022-12-23T20:25:10.918Z,99986.75
2022-12-23T20:27:38.951Z,99988.41
2022-12-23T20:30:07.847Z,99987.59
2022-12-23T20:32:35.409Z,99980.63
2022-12-23T20:35:02.999Z,99972.84
2022-12-23T20:37:30.491Z,99965.88
2022-12-23T20:39:59.452Z,99957.38
2022-12-23T20:42:28.004Z,99957.38
2022-12-23T20:44:55.570Z,99954.78
2022-12-23T20:47:23.089Z,99959.16
2022-12-23T20:49:50.642Z,99954.88
2022-12-23T20:52:18.213Z,99959.16
2022-12-23T20:54:47.224Z,99956.66
2022-12-23T20:57:16.198Z,99957.56
2022-12-23T20:59:43.895Z,99955.78
2022-12-23T21:02:13.637Z,99958.38
2022-12-23T21:04:41.390Z,99955.78
2022-12-23T21:07:09.120Z,99948.97
2022-12-23T21:09:36.926Z,99955.88
2022-12-23T21:12:04.783Z,99965.34
2022-12-23T21:14:33.847Z,99952.56
2022-12-23T21:17:01.695Z,99956.84
2022-12-23T21:19:29.414Z,99960.25
2022-12-23T21:21:57.940Z,99958.50
2022-12-23T21:24:25.688Z,99963.81
2022-12-23T21:26:56.861Z,99957.88
2022-12-23T21:29:26.076Z,99957.34
2022-12-23T21:31:55.946Z,99964.41
2022-12-23T21:34:23.665Z,99959.31
2022-12-23T21:36:51.341Z,99961.06
2022-12-23T21:39:19.833Z,99957.53
2022-12-23T21:41:49.155Z,99954.94
2022-12-23T21:44:16.700Z,99955.03
2022-12-23T21:46:44.554Z,99963.66
2022-12-23T21:49:13.614Z,99943.00
2022-12-23T21:51:42.062Z,99952.63
2022-12-23T21:54:10.427Z,99952.84
2022-12-23T21:56:38.935Z,99959.06
2022-12-23T21:59:08.252Z,99953.03
2022-12-23T22:01:35.748Z,99952.09
2022-12-23T22:04:03.273Z,99952.09
2022-12-23T22:06:36.524Z,99943.41
2022-12-23T22:09:05.280Z,99946.81
2022-12-23T22:11:35.384Z,99939.03
2022-12-23T22:14:04.895Z,99940.69
2022-12-23T22:16:33.403Z,99944.22
2022-12-23T22:19:02.584Z,99940.81
2022-12-23T22:21:32.939Z,99932.00
2022-12-23T22:24:00.535Z,99926.81
2022-12-23T22:26:31.847Z,99923.34
2022-12-23T22:29:01.133Z,99929.59
2022-12-23T22:31:33.696Z,99928.66
2022-12-23T22:34:01.415Z,99930.53
2022-12-23T22:36:29.099Z,99920.13
2022-12-23T22:38:59.836Z,99929.88
2022-12-23T22:41:28.852Z,99929.16
2022-12-23T22:43:57.142Z,99930.19
2022-12-23T22:46:27.912Z,99925.91
2022-12-23T22:48:56.578Z,99935.47
2022-12-23T22:51:26.426Z,99925.09
2022-12-23T22:53:54.333Z,99922.59
2022-12-23T22:56:24.850Z,99922.69
2022-12-23T22:58:53.736Z,99922.59
2022-12-23T23:01:26.085Z,99922.59
2022-12-23T23:03:57.325Z,99922.50
2022-12-23T23:06:26.645Z,99923.31
2022-12-23T23:08:55.173Z,99917.22
2022-12-23T23:11:24.735Z,99915.44
2022-12-23T23:13:52.733Z,99918.03
2022-12-23T23:16:20.418Z,99917.22
2022-12-23T23:18:47.946Z,99920.72
2022-12-23T23:21:16.028Z,99920.63
2022-12-23T23:23:43.556Z,99915.53
2022-12-23T23:26:11.656Z,99915.53
2022-12-23T23:28:41.104Z,99919.91
2022-12-23T23:31:40.407Z,99912.94
2022-12-23T23:33:58.125Z,99914.72
2022-12-23T23:36:25.695Z,99914.81
2022-12-23T23:38:53.442Z,99921.69
2022-12-23T23:41:23.809Z,99926.03
2022-12-23T23:43:53.167Z,99922.59
2022-12-23T23:46:21.076Z,99927.88
2022-12-23T23:48:48.977Z,99930.47
2022-12-23T23:51:19.092Z,99933.16
2022-12-23T23:53:46.641Z,99940.84
2022-12-23T23:56:14.187Z,99938.25
2022-12-23T23:58:41.722Z,99939.22
